Time;durP1;ratioP1;P1;durP2;ratioP2;P2;SDS_P1;SDS_P2;PMS_P1;PMS_P2;Temp;Humidity;BMP_temperature;BMP_pressure;BME280_temperature;BME280_humidity;BME280_pressure;Samples;Min_cycle;Max_cycle;Signal;HPM_P1;HPM_P2
2021/12/11 00:00:34;;;;;;;17.97;11.27;;;1.70;99.90;;;;;;4993894;28;20415;-68
2021/12/11 00:03:13;;;;;;;15.57;11.20;;;1.60;99.90;;;;;;4993603;28;20455;-68
2021/12/11 00:05:40;;;;;;;15.63;13.13;;;1.60;99.90;;;;;;4982727;28;20431;-69
2021/12/11 00:08:08;;;;;;;17.57;13.83;;;1.60;99.90;;;;;;4977238;28;20412;-68
2021/12/11 00:10:44;;;;;;;16.30;13.40;;;1.60;99.90;;;;;;4972540;28;20440;-68
2021/12/11 00:13:15;;;;;;;20.63;14.40;;;1.50;99.90;;;;;;4972203;28;20436;-68
2021/12/11 00:15:43;;;;;;;26.20;13.90;;;1.50;99.90;;;;;;4972789;28;20455;-68
2021/12/11 00:18:12;;;;;;;19.17;15.10;;;1.50;99.90;;;;;;4971736;28;20417;-68
2021/12/11 00:20:42;;;;;;;17.73;13.20;;;1.60;99.90;;;;;;4971604;28;20431;-68
2021/12/11 00:23:09;;;;;;;16.10;12.90;;;1.60;99.90;;;;;;4973200;28;20432;-68
2021/12/11 00:25:45;;;;;;;17.33;12.93;;;1.70;99.90;;;;;;5013045;28;20461;-68
2021/12/11 00:28:12;;;;;;;15.67;12.10;;;1.70;99.90;;;;;;5014289;28;20449;-68
2021/12/11 00:30:42;;;;;;;18.70;13.87;;;1.70;99.90;;;;;;5013557;28;20410;-68
2021/12/11 00:33:19;;;;;;;16.97;13.80;;;1.80;99.90;;;;;;5013839;28;20831;-68
2021/12/11 00:35:45;;;;;;;19.83;12.60;;;1.80;99.90;;;;;;5013007;28;20466;-68
2021/12/11 00:38:20;;;;;;;16.80;12.33;;;1.80;99.90;;;;;;5027227;28;20453;-68
2021/12/11 00:40:48;;;;;;;15.53;12.70;;;1.80;99.90;;;;;;5032564;28;20415;-68
2021/12/11 00:43:20;;;;;;;27.43;12.93;;;1.90;99.90;;;;;;5040409;28;20421;-68
2021/12/11 00:45:48;;;;;;;18.90;13.97;;;1.80;99.90;;;;;;5032567;28;20901;-68
2021/12/11 00:48:18;;;;;;;18.60;13.67;;;1.80;99.90;;;;;;5032274;28;20405;-68
2021/12/11 00:50:49;;;;;;;21.97;15.30;;;1.90;99.90;;;;;;5030571;28;20449;-68
2021/12/11 00:53:28;;;;;;;18.00;14.17;;;1.90;99.90;;;;;;5032811;28;20466;-68
2021/12/11 00:55:57;;;;;;;22.10;15.03;;;1.90;99.90;;;;;;5018183;28;20461;-68
2021/12/11 00:58:30;;;;;;;18.63;15.30;;;1.90;99.90;;;;;;5031874;28;20820;-68
2021/12/11 01:01:00;;;;;;;18.23;14.43;;;2.00;99.90;;;;;;5034377;28;20411;-68
2021/12/11 01:03:33;;;;;;;19.30;14.70;;;2.10;99.90;;;;;;5053148;28;20478;-69
2021/12/11 01:06:05;;;;;;;23.47;15.07;;;2.10;99.90;;;;;;5052786;28;20178;-68
2021/12/11 01:08:35;;;;;;;24.70;15.40;;;2.00;99.90;;;;;;5050459;28;20402;-68
2021/12/11 01:11:34;;;;;;;32.07;18.63;;;2.10;99.90;;;;;;5052295;28;20436;-68
2021/12/11 01:14:26;;;;;;;35.27;20.43;;;2.30;99.90;;;;;;5008657;28;20804;-68
2021/12/11 01:17:02;;;;;;;43.50;22.53;;;2.40;99.90;;;;;;5011913;28;20434;-68
2021/12/11 01:19:36;;;;;;;48.10;24.53;;;2.60;99.90;;;;;;5011758;28;20394;-69
2021/12/11 01:22:09;;;;;;;53.80;24.87;;;2.50;99.90;;;;;;5012669;28;20427;-68
2021/12/11 01:24:43;;;;;;;45.23;24.00;;;2.40;99.90;;;;;;5011967;28;20406;-68
2021/12/11 01:27:12;;;;;;;40.77;23.13;;;2.50;99.90;;;;;;5011312;28;20501;-68
2021/12/11 01:29:37;;;;;;;32.90;21.20;;;2.50;99.90;;;;;;5012075;28;20705;-68
2021/12/11 01:32:05;;;;;;;32.20;20.03;;;2.60;99.90;;;;;;5011694;28;20473;-68
2021/12/11 01:34:32;;;;;;;34.60;20.70;;;2.70;99.90;;;;;;5013063;28;20266;-69
2021/12/11 01:36:58;;;;;;;42.50;22.40;;;2.70;99.90;;;;;;5011814;28;20442;-68
2021/12/11 01:39:30;;;;;;;38.17;22.50;;;2.80;99.90;;;;;;5012416;28;20448;-68
2021/12/11 01:41:57;;;;;;;37.77;21.50;;;2.90;99.90;;;;;;5011354;28;20430;-68
2021/12/11 01:44:30;;;;;;;36.83;22.33;;;3.00;99.90;;;;;;5022106;28;20776;-68
2021/12/11 01:47:09;;;;;;;43.43;23.27;;;3.00;99.90;;;;;;5031582;28;20504;-68
2021/12/11 01:49:35;;;;;;;41.50;23.63;;;2.70;99.90;;;;;;5011716;28;20386;-68
2021/12/11 01:52:13;;;;;;;41.90;22.60;;;2.60;99.90;;;;;;5011793;28;20431;-68
2021/12/11 01:54:44;;;;;;;39.67;22.80;;;2.60;99.90;;;;;;5015617;28;20423;-68
2021/12/11 01:57:22;;;;;;;39.00;22.33;;;2.50;99.90;;;;;;5014543;28;20972;-68
2021/12/11 01:59:53;;;;;;;45.60;23.70;;;2.60;99.90;;;;;;5015660;28;20430;-70
2021/12/11 02:02:33;;;;;;;41.47;23.67;;;2.70;99.90;;;;;;5015854;28;20939;-69
2021/12/11 02:04:59;;;;;;;50.90;24.00;;;2.90;99.90;;;;;;5019241;28;20406;-70
2021/12/11 02:07:40;;;;;;;44.80;23.77;;;3.00;99.90;;;;;;5046686;28;20444;-67
2021/12/11 02:10:15;;;;;;;50.40;24.80;;;3.00;99.90;;;;;;5051414;28;20405;-67
2021/12/11 02:12:43;;;;;;;48.93;24.87;;;2.80;99.90;;;;;;5034730;28;20469;-68
2021/12/11 02:15:17;;;;;;;59.87;27.33;;;2.50;99.90;;;;;;5034466;28;20567;-69
2021/12/11 02:17:55;;;;;;;46.63;23.90;;;2.40;99.90;;;;;;5032369;28;20434;-67
2021/12/11 02:20:28;;;;;;;64.93;29.43;;;2.50;99.90;;;;;;5034590;28;20375;-67
2021/12/11 02:22:54;;;;;;;58.73;28.50;;;2.50;99.90;;;;;;5034666;28;21126;-68
2021/12/11 02:25:26;;;;;;;54.43;27.43;;;2.60;99.90;;;;;;5034349;28;20936;-68
2021/12/11 02:27:56;;;;;;;51.40;26.33;;;2.60;99.90;;;;;;5032220;28;20510;-68
2021/12/11 02:30:31;;;;;;;54.53;26.47;;;2.70;99.90;;;;;;5034515;28;20406;-67
2021/12/11 02:33:16;;;;;;;65.73;29.00;;;2.70;99.90;;;;;;5033999;28;20449;-68
2021/12/11 02:35:51;;;;;;;53.13;25.67;;;2.70;99.90;;;;;;5033621;28;20657;-68
2021/12/11 02:38:30;;;;;;;55.20;26.23;;;2.60;99.90;;;;;;5020176;28;20422;-68
2021/12/11 02:41:10;;;;;;;53.03;25.90;;;2.40;99.90;;;;;;5025675;28;20559;-68
2021/12/11 02:43:43;;;;;;;51.50;24.57;;;2.40;99.90;;;;;;5032825;28;20418;-68
2021/12/11 02:46:24;;;;;;;54.70;26.87;;;2.20;99.90;;;;;;5033455;28;20398;-68
2021/12/11 02:48:56;;;;;;;52.77;28.80;;;2.10;99.90;;;;;;5033840;28;20417;-68
2021/12/11 02:51:30;;;;;;;57.20;28.87;;;2.00;99.90;;;;;;5031637;28;20432;-68
2021/12/11 02:54:04;;;;;;;68.97;28.27;;;2.10;99.90;;;;;;5033146;28;20497;-68
2021/12/11 02:56:37;;;;;;;56.57;29.07;;;2.00;99.90;;;;;;5033062;28;20453;-68
2021/12/11 02:59:09;;;;;;;80.17;31.17;;;2.00;99.90;;;;;;5033859;28;20840;-68
2021/12/11 03:01:40;;;;;;;64.20;30.50;;;2.00;99.90;;;;;;5031673;28;20437;-68
2021/12/11 03:04:35;;;;;;;66.40;31.07;;;1.90;99.90;;;;;;5032893;28;20393;-68
2021/12/11 03:06:56;;;;;;;72.60;33.83;;;1.90;99.90;;;;;;5032470;28;20929;-68
2021/12/11 03:09:26;;;;;;;61.40;30.60;;;1.90;99.90;;;;;;5031877;28;20430;-68
2021/12/11 03:11:54;;;;;;;81.17;34.53;;;2.00;99.90;;;;;;5031482;28;20961;-68
2021/12/11 03:14:22;;;;;;;69.80;33.10;;;2.20;99.90;;;;;;5032757;28;20413;-68
2021/12/11 03:16:50;;;;;;;74.43;33.40;;;2.30;99.90;;;;;;5032619;28;20473;-67
2021/12/11 03:19:18;;;;;;;76.87;34.20;;;2.40;99.90;;;;;;5031814;28;20414;-67
2021/12/11 03:21:44;;;;;;;65.63;30.93;;;2.50;99.90;;;;;;5033453;28;20495;-67
2021/12/11 03:24:11;;;;;;;73.40;32.30;;;2.40;99.90;;;;;;5031279;28;20417;-67
2021/12/11 03:26:38;;;;;;;84.30;35.00;;;2.30;99.90;;;;;;5032677;28;20405;-67
2021/12/11 03:29:05;;;;;;;73.93;33.63;;;2.30;99.90;;;;;;5032931;28;20411;-67
2021/12/11 03:31:31;;;;;;;68.20;32.17;;;2.40;99.90;;;;;;5032819;28;20500;-67
2021/12/11 03:33:58;;;;;;;68.30;32.50;;;2.60;99.90;;;;;;5042679;22;20490;-70
2021/12/11 03:36:26;;;;;;;83.33;35.20;;;2.70;99.90;;;;;;4993793;28;20467;-70
2021/12/11 03:38:59;;;;;;;72.80;36.03;;;2.80;99.90;;;;;;4992659;28;20419;-70
2021/12/11 03:41:27;;;;;;;76.60;35.10;;;2.90;99.90;;;;;;4993306;28;20396;-70
2021/12/11 03:43:53;;;;;;;74.10;33.37;;;2.80;99.90;;;;;;4988760;28;20480;-70
2021/12/11 03:46:20;;;;;;;77.23;31.93;;;2.50;99.90;;;;;;4973160;28;20475;-70
2021/12/11 03:49:00;;;;;;;79.77;36.00;;;2.50;99.90;;;;;;4973919;28;20973;-70
2021/12/11 03:51:32;;;;;;;83.73;34.20;;;2.50;99.90;;;;;;4956227;28;20426;-70
2021/12/11 03:54:00;;;;;;;66.60;32.27;;;2.50;99.90;;;;;;4973842;28;20436;-70
2021/12/11 03:56:26;;;;;;;67.90;32.43;;;2.60;99.90;;;;;;4973444;28;20550;-71
2021/12/11 03:58:52;;;;;;;74.67;33.17;;;2.60;99.90;;;;;;4973725;28;20479;-71
2021/12/11 04:01:25;;;;;;;73.23;32.03;;;2.70;99.90;;;;;;4973578;28;20482;-70
2021/12/11 04:03:55;;;;;;;73.63;35.33;;;2.80;99.90;;;;;;4973494;28;20979;-71
2021/12/11 04:06:22;;;;;;;74.00;33.93;;;2.80;99.90;;;;;;4974091;28;20780;-70
2021/12/11 04:08:49;;;;;;;80.23;32.77;;;2.80;99.90;;;;;;4973614;28;20412;-70
2021/12/11 04:11:22;;;;;;;87.07;34.70;;;2.90;99.90;;;;;;4973445;28;20984;-70
2021/12/11 04:13:52;;;;;;;77.57;32.30;;;2.80;99.90;;;;;;4973418;28;20432;-70
2021/12/11 04:16:18;;;;;;;76.07;32.67;;;2.70;99.90;;;;;;4973645;28;20488;-70
2021/12/11 04:18:45;;;;;;;77.10;34.30;;;2.80;99.90;;;;;;4973383;28;20944;-70
2021/12/11 04:21:11;;;;;;;77.93;35.03;;;2.90;99.90;;;;;;4973273;28;20408;-70
2021/12/11 04:23:37;;;;;;;66.53;31.37;;;2.90;99.90;;;;;;4973156;28;20994;-70
2021/12/11 04:26:04;;;;;;;68.87;32.80;;;3.00;99.90;;;;;;4974197;28;20748;-69
2021/12/11 04:28:32;;;;;;;72.33;34.37;;;3.10;99.90;;;;;;4973474;28;20417;-69
2021/12/11 04:31:04;;;;;;;72.23;31.47;;;3.20;99.90;;;;;;4978313;28;21100;-70
2021/12/11 04:33:33;;;;;;;78.13;33.63;;;3.20;99.90;;;;;;4971882;28;20463;-70
2021/12/11 04:35:59;;;;;;;76.33;34.20;;;3.30;99.90;;;;;;4971024;28;20492;-69
2021/12/11 04:38:24;;;;;;;60.17;30.43;;;3.30;99.90;;;;;;4973568;28;20507;-69
2021/12/11 04:40:54;;;;;;;76.80;32.40;;;3.30;99.90;;;;;;4983739;28;20178;-69
2021/12/11 04:43:22;;;;;;;65.30;31.80;;;3.30;99.90;;;;;;4991246;28;20175;-71
2021/12/11 04:46:04;;;;;;;61.73;33.30;;;3.30;99.90;;;;;;4991998;28;20440;-68
2021/12/11 05:01:53;;;;;;;63.43;31.30;;;3.40;99.90;;;;;;4977455;28;20461;-70
2021/12/11 05:04:38;;;;;;;59.97;31.33;;;3.40;99.90;;;;;;4972639;28;20545;-69
2021/12/11 05:10:18;;;;;;;59.83;30.67;;;3.40;99.90;;;;;;4972674;28;20408;-70
2021/12/11 05:12:47;;;;;;;64.10;31.30;;;3.50;99.90;;;;;;4991569;28;20435;-70
2021/12/11 05:15:25;;;;;;;56.63;30.60;;;3.50;99.90;;;;;;4993782;28;20956;-70
2021/12/11 05:17:51;;;;;;;54.40;30.10;;;3.40;99.90;;;;;;4991872;28;20407;-70
2021/12/11 05:20:21;;;;;;;58.30;30.47;;;3.30;99.90;;;;;;4991901;28;20501;-70
2021/12/11 05:22:47;;;;;;;54.33;29.47;;;3.40;99.90;;;;;;4985404;28;20985;-70
2021/12/11 05:25:14;;;;;;;54.93;28.80;;;3.50;99.90;;;;;;4972554;28;20426;-70
2021/12/11 05:27:41;;;;;;;57.53;29.43;;;3.50;99.90;;;;;;4972267;28;20257;-70
2021/12/11 05:30:23;;;;;;;61.80;29.07;;;3.60;99.90;;;;;;4976173;28;20438;-70
2021/12/11 05:32:49;;;;;;;62.63;29.43;;;3.50;99.90;;;;;;4977315;28;20571;-70
2021/12/11 05:35:16;;;;;;;60.83;31.30;;;3.40;99.90;;;;;;4975861;28;20489;-71
2021/12/11 05:37:43;;;;;;;56.50;29.33;;;3.40;99.90;;;;;;4975736;28;20872;-70
2021/12/11 05:40:11;;;;;;;65.07;32.13;;;3.50;99.90;;;;;;4976768;28;20414;-70
2021/12/11 05:42:36;;;;;;;57.07;30.47;;;3.50;99.90;;;;;;4976796;28;20443;-71
2021/12/11 05:45:04;;;;;;;57.73;28.80;;;3.50;99.90;;;;;;4976723;28;20481;-70
2021/12/11 05:47:30;;;;;;;56.60;29.50;;;3.50;99.90;;;;;;4978075;28;20173;-70
2021/12/11 05:49:57;;;;;;;59.90;29.80;;;3.40;99.90;;;;;;4977908;28;20413;-70
2021/12/11 05:52:23;;;;;;;55.70;29.40;;;3.30;99.90;;;;;;4976468;28;20652;-70
2021/12/11 05:54:50;;;;;;;56.20;28.83;;;3.40;99.90;;;;;;4976942;28;20494;-70
2021/12/11 05:57:17;;;;;;;51.43;27.00;;;3.50;99.90;;;;;;4974459;28;20570;-69
2021/12/11 05:59:44;;;;;;;62.27;30.40;;;3.50;99.90;;;;;;4976122;28;20495;-70
2021/12/11 06:02:20;;;;;;;52.47;29.30;;;3.60;99.90;;;;;;4976312;28;20420;-70
2021/12/11 06:04:50;;;;;;;56.63;28.87;;;3.40;99.90;;;;;;4993913;28;20912;-70
2021/12/11 06:07:17;;;;;;;59.20;29.87;;;3.50;99.90;;;;;;5001336;28;20940;-70
2021/12/11 06:09:46;;;;;;;61.73;28.40;;;3.40;99.90;;;;;;5008728;28;20817;-70
2021/12/11 06:12:15;;;;;;;50.37;25.80;;;3.40;99.90;;;;;;4997443;28;20415;-70
2021/12/11 06:14:42;;;;;;;52.63;26.57;;;3.30;99.90;;;;;;4997019;28;20474;-70
2021/12/11 06:17:10;;;;;;;55.47;25.47;;;3.40;99.90;;;;;;4997782;28;20829;-70
2021/12/11 06:19:37;;;;;;;49.40;24.97;;;3.40;99.90;;;;;;4999698;28;20453;-70
2021/12/11 06:22:03;;;;;;;64.33;27.27;;;3.40;99.90;;;;;;5005760;28;20443;-71
2021/12/11 06:24:29;;;;;;;50.63;26.33;;;3.50;99.90;;;;;;5008593;28;20792;-71
2021/12/11 06:26:56;;;;;;;48.97;27.90;;;3.40;99.90;;;;;;5003035;28;20427;-70
2021/12/11 06:29:22;;;;;;;53.90;26.67;;;3.40;99.90;;;;;;5002308;28;20173;-70
2021/12/11 06:31:48;;;;;;;50.77;25.23;;;3.50;99.90;;;;;;4987363;28;20440;-70
2021/12/11 06:34:14;;;;;;;47.63;25.87;;;3.50;99.90;;;;;;4987708;28;20464;-71
2021/12/11 06:36:42;;;;;;;52.40;26.70;;;3.60;99.90;;;;;;4987171;28;20466;-71
2021/12/11 06:39:13;;;;;;;51.27;25.97;;;3.60;99.90;;;;;;4985847;28;20181;-70
2021/12/11 06:41:42;;;;;;;58.70;28.87;;;3.60;99.90;;;;;;4989987;28;20414;-70
2021/12/11 06:44:08;;;;;;;56.27;29.43;;;3.70;99.90;;;;;;4990881;28;20907;-70
2021/12/11 06:46:36;;;;;;;49.33;26.27;;;3.60;99.90;;;;;;4990610;28;20414;-71
2021/12/11 06:49:02;;;;;;;48.90;26.83;;;3.60;99.90;;;;;;4990760;28;20968;-71
2021/12/11 06:51:28;;;;;;;52.60;27.10;;;3.50;99.90;;;;;;4978702;28;20584;-70
2021/12/11 06:53:58;;;;;;;52.93;27.97;;;3.60;99.90;;;;;;4971087;28;20427;-70
2021/12/11 06:56:25;;;;;;;53.27;27.33;;;3.60;99.90;;;;;;4970828;28;20474;-70
2021/12/11 06:58:51;;;;;;;46.60;26.07;;;3.70;99.90;;;;;;4971377;28;20413;-69
2021/12/11 07:01:21;;;;;;;50.27;28.50;;;3.70;99.90;;;;;;4971992;28;20422;-70
2021/12/11 07:03:47;;;;;;;49.20;25.63;;;3.70;99.90;;;;;;4971052;28;20875;-69
2021/12/11 07:06:14;;;;;;;47.73;26.10;;;3.60;99.90;;;;;;4971232;28;20427;-70
2021/12/11 07:08:40;;;;;;;55.63;27.07;;;3.60;99.90;;;;;;4982726;28;20432;-70
2021/12/11 07:11:11;;;;;;;53.07;28.80;;;3.70;99.90;;;;;;4990720;28;20409;-70
2021/12/11 07:13:38;;;;;;;59.73;29.47;;;3.70;99.90;;;;;;4971732;28;20296;-70
2021/12/11 07:16:04;;;;;;;55.90;28.20;;;3.60;99.90;;;;;;4970043;28;20973;-69
2021/12/11 07:18:31;;;;;;;48.20;28.30;;;3.50;99.90;;;;;;4970715;28;20405;-69
2021/12/11 07:20:57;;;;;;;58.43;30.00;;;3.60;99.90;;;;;;4970919;28;20414;-70
2021/12/11 07:23:23;;;;;;;55.37;28.37;;;3.60;99.90;;;;;;4971668;28;20516;-70
2021/12/11 07:26:00;;;;;;;49.67;27.03;;;3.50;99.90;;;;;;4970611;28;20542;-69
2021/12/11 07:28:26;;;;;;;53.10;27.43;;;3.40;99.90;;;;;;4989930;28;20194;-69
2021/12/11 07:30:55;;;;;;;52.10;28.63;;;3.50;99.90;;;;;;4992885;28;20980;-70
2021/12/11 07:33:21;;;;;;;53.33;28.07;;;3.50;99.90;;;;;;4996477;28;20528;-70
2021/12/11 07:35:49;;;;;;;51.30;26.90;;;3.50;99.90;;;;;;4989921;28;20506;-70
2021/12/11 07:38:15;;;;;;;50.57;28.40;;;3.50;99.90;;;;;;4989821;28;20182;-69
2021/12/11 07:40:52;;;;;;;48.63;26.77;;;3.50;99.90;;;;;;4990351;28;20418;-69
2021/12/11 07:43:19;;;;;;;52.00;26.97;;;3.60;99.90;;;;;;4989320;28;20193;-70
2021/12/11 07:45:46;;;;;;;54.23;29.33;;;3.60;99.90;;;;;;4970125;28;20840;-69
2021/12/11 07:48:12;;;;;;;57.20;28.63;;;3.50;99.90;;;;;;4970886;28;20916;-70
2021/12/11 07:50:39;;;;;;;56.93;30.77;;;3.60;99.90;;;;;;4970244;28;20426;-70
2021/12/11 07:53:05;;;;;;;52.40;28.67;;;3.60;99.90;;;;;;4970343;28;20489;-70
2021/12/11 07:55:32;;;;;;;57.00;29.00;;;3.60;99.90;;;;;;4969900;28;21258;-71
2021/12/11 07:57:59;;;;;;;65.53;30.00;;;3.60;99.90;;;;;;4970279;28;20561;-70
2021/12/11 08:00:26;;;;;;;53.60;27.20;;;3.60;99.90;;;;;;4970396;28;20428;-70
2021/12/11 08:02:52;;;;;;;56.37;29.63;;;3.60;99.90;;;;;;4969097;28;20944;-70
2021/12/11 08:05:18;;;;;;;62.57;31.30;;;3.70;99.90;;;;;;4971125;28;20444;-70
2021/12/11 08:07:44;;;;;;;57.93;30.90;;;3.70;99.90;;;;;;4969948;28;20394;-70
2021/12/11 08:10:15;;;;;;;53.37;29.47;;;3.80;99.90;;;;;;4970211;28;20417;-70
2021/12/11 08:12:41;;;;;;;56.20;29.40;;;3.80;99.90;;;;;;4970290;28;20244;-69
2021/12/11 08:15:09;;;;;;;55.13;30.47;;;3.90;99.90;;;;;;4980110;28;20976;-69
2021/12/11 08:17:35;;;;;;;58.70;30.27;;;3.90;99.90;;;;;;4986112;28;20978;-69
2021/12/11 08:20:00;;;;;;;51.90;29.80;;;3.90;99.90;;;;;;4988818;28;20420;-69
2021/12/11 08:22:26;;;;;;;54.77;28.97;;;4.00;99.90;;;;;;4988514;28;20163;-69
2021/12/11 08:24:52;;;;;;;51.60;28.50;;;3.90;99.90;;;;;;4988705;28;20281;-69
2021/12/11 08:27:20;;;;;;;55.10;26.80;;;4.00;99.90;;;;;;4987654;28;20203;-69
2021/12/11 08:29:49;;;;;;;48.63;27.90;;;3.90;99.90;;;;;;4988717;28;20190;-69
2021/12/11 08:32:15;;;;;;;54.83;28.80;;;4.00;99.90;;;;;;4991249;28;20438;-74
2021/12/11 08:34:42;;;;;;;59.20;29.07;;;4.00;99.90;;;;;;4994268;28;20472;-69
2021/12/11 08:37:10;;;;;;;52.90;28.37;;;3.90;99.90;;;;;;4983188;28;20472;-72
2021/12/11 08:39:37;;;;;;;55.83;28.47;;;4.00;99.90;;;;;;4983862;28;20514;-69
2021/12/11 08:42:05;;;;;;;48.67;28.13;;;4.00;99.90;;;;;;4989831;28;20423;-70
2021/12/11 08:44:35;;;;;;;53.40;27.13;;;4.00;99.90;;;;;;4988446;28;20431;-70
2021/12/11 08:47:05;;;;;;;51.63;28.73;;;4.10;99.90;;;;;;4989764;28;20407;-69
2021/12/11 08:49:33;;;;;;;54.80;28.10;;;4.20;99.90;;;;;;5000124;28;20426;-69
2021/12/11 08:52:17;;;;;;;52.37;28.23;;;4.30;99.90;;;;;;4992611;28;20707;-70
2021/12/11 08:54:43;;;;;;;44.87;24.77;;;4.40;99.90;;;;;;4970436;28;20522;-68
2021/12/11 08:57:12;;;;;;;48.50;27.50;;;4.50;99.90;;;;;;4984297;28;20873;-69
2021/12/11 08:59:41;;;;;;;46.60;25.93;;;4.50;99.90;;;;;;5011641;28;20489;-70
2021/12/11 09:02:14;;;;;;;49.50;25.33;;;4.50;99.90;;;;;;4987100;28;20435;-70
2021/12/11 09:04:54;;;;;;;42.67;25.17;;;4.60;99.90;;;;;;4975489;28;20482;-69
2021/12/11 09:07:35;;;;;;;52.00;28.30;;;4.60;99.90;;;;;;4976048;28;20558;-69
2021/12/11 09:10:06;;;;;;;51.73;25.77;;;4.60;99.90;;;;;;4976303;28;20793;-69
2021/12/11 09:12:43;;;;;;;45.93;24.50;;;4.70;99.90;;;;;;4977412;28;20924;-69
2021/12/11 09:15:18;;;;;;;49.17;25.20;;;4.70;99.90;;;;;;4976865;28;21018;-69
2021/12/11 09:17:49;;;;;;;55.50;26.43;;;4.70;99.90;;;;;;4975936;28;20399;-69
2021/12/11 09:20:22;;;;;;;42.63;23.87;;;4.70;99.90;;;;;;4976281;28;20921;-69
2021/12/11 09:23:01;;;;;;;49.53;26.57;;;4.70;99.90;;;;;;4983778;28;20421;-68
2021/12/11 09:25:36;;;;;;;53.67;27.43;;;4.70;99.90;;;;;;4995669;28;20445;-70
2021/12/11 09:28:23;;;;;;;54.90;27.30;;;4.70;99.90;;;;;;4995467;28;20853;-69
2021/12/11 09:30:54;;;;;;;51.87;25.50;;;4.50;99.90;;;;;;4995397;28;20404;-69
2021/12/11 09:33:26;;;;;;;50.50;26.37;;;4.60;99.90;;;;;;4992628;28;20502;-70
2021/12/11 09:36:07;;;;;;;49.17;27.20;;;4.60;99.90;;;;;;5032502;23;20494;-67
2021/12/11 09:38:37;;;;;;;51.70;27.30;;;4.60;99.90;;;;;;5016294;28;20398;-68
2021/12/11 09:41:20;;;;;;;53.03;26.17;;;4.70;99.90;;;;;;5016461;28;20453;-68
2021/12/11 09:44:15;;;;;;;52.30;27.07;;;4.60;99.90;;;;;;5032826;28;20424;-67
2021/12/11 09:46:48;;;;;;;50.37;25.93;;;4.70;99.90;;;;;;5008682;28;20430;-67
2021/12/11 09:49:19;;;;;;;53.43;28.57;;;4.80;99.90;;;;;;4998130;28;20432;-68
2021/12/11 09:51:47;;;;;;;49.53;26.60;;;4.80;99.90;;;;;;4995252;28;20761;-68
2021/12/11 09:54:23;;;;;;;46.43;25.87;;;4.80;99.90;;;;;;4994574;28;20427;-67
2021/12/11 09:57:00;;;;;;;43.10;22.93;;;4.90;99.90;;;;;;4988013;28;20814;-67
2021/12/11 09:59:29;;;;;;;43.10;23.70;;;4.90;99.90;;;;;;5016332;28;20445;-68
2021/12/11 10:01:59;;;;;;;41.57;23.37;;;4.90;99.90;;;;;;5015868;28;20920;-67
2021/12/11 10:04:35;;;;;;;42.53;23.13;;;4.90;99.90;;;;;;5015743;28;20957;-68
2021/12/11 10:09:41;;;;;;;41.93;23.53;;;5.00;99.90;;;;;;4990772;28;20961;-68
2021/12/11 10:12:20;;;;;;;43.13;25.33;;;5.00;99.90;;;;;;4994151;28;21073;-67
2021/12/11 10:14:51;;;;;;;42.80;22.40;;;5.00;99.90;;;;;;4993706;28;20422;-68
2021/12/11 10:17:24;;;;;;;46.03;23.60;;;5.00;99.90;;;;;;4991805;28;20490;-68
2021/12/11 10:19:52;;;;;;;44.00;25.27;;;5.10;99.90;;;;;;4993972;28;20428;-68
2021/12/11 10:22:28;;;;;;;45.80;25.53;;;5.10;99.90;;;;;;4993516;28;20400;-67
2021/12/11 10:24:54;;;;;;;44.60;23.03;;;5.10;99.90;;;;;;4993981;28;20513;-67
2021/12/11 10:27:24;;;;;;;43.00;25.47;;;5.00;99.90;;;;;;4993965;28;20525;-66
2021/12/11 10:29:52;;;;;;;50.50;26.00;;;5.10;99.90;;;;;;4995552;28;20395;-67
2021/12/11 10:32:23;;;;;;;45.90;25.67;;;5.10;99.90;;;;;;4994516;28;20419;-67
2021/12/11 10:34:54;;;;;;;49.60;27.23;;;5.10;99.90;;;;;;4995650;28;20451;-68
2021/12/11 10:37:27;;;;;;;43.17;24.07;;;5.00;99.90;;;;;;4993513;28;20537;-67
2021/12/11 10:39:57;;;;;;;40.50;22.97;;;4.90;99.90;;;;;;4992321;28;20438;-67
2021/12/11 10:42:23;;;;;;;45.80;24.87;;;4.70;99.90;;;;;;4975987;28;20428;-67
2021/12/11 10:44:52;;;;;;;41.50;24.10;;;4.60;99.90;;;;;;4977000;28;20435;-67
2021/12/11 10:47:26;;;;;;;46.60;24.50;;;4.60;99.90;;;;;;4985351;28;20683;-67
2021/12/11 10:49:52;;;;;;;42.97;23.73;;;4.50;99.90;;;;;;4995383;28;20432;-67
2021/12/11 10:52:22;;;;;;;47.83;26.63;;;4.40;99.90;;;;;;4995873;28;20435;-67
2021/12/11 10:54:50;;;;;;;42.33;25.03;;;4.30;99.90;;;;;;4996479;28;20477;-67
2021/12/11 10:57:17;;;;;;;51.00;25.43;;;4.30;99.90;;;;;;5001886;28;20460;-67
2021/12/11 10:59:45;;;;;;;48.83;25.40;;;4.30;99.90;;;;;;4996218;28;20425;-67
2021/12/11 11:02:15;;;;;;;44.13;24.17;;;4.40;99.90;;;;;;4994284;28;20492;-67
2021/12/11 11:04:47;;;;;;;43.87;24.30;;;4.40;99.90;;;;;;4994830;28;20466;-67
2021/12/11 11:07:13;;;;;;;46.30;24.60;;;4.40;99.90;;;;;;4994863;28;20431;-67
2021/12/11 11:09:40;;;;;;;40.63;23.77;;;4.30;99.90;;;;;;5000199;28;20426;-70
2021/12/11 11:12:13;;;;;;;42.47;23.87;;;4.40;99.90;;;;;;5008778;28;20506;-69
2021/12/11 11:14:40;;;;;;;37.00;22.30;;;4.50;99.90;;;;;;5012387;28;20510;-67
2021/12/11 11:17:13;;;;;;;38.83;21.00;;;4.60;99.90;;;;;;5027383;28;20504;-68
2021/12/11 11:19:40;;;;;;;43.33;22.50;;;4.70;99.90;;;;;;5009401;28;20418;-68
2021/12/11 11:22:30;;;;;;;37.70;21.97;;;4.60;99.90;;;;;;5013220;28;20449;-68
2021/12/11 11:25:11;;;;;;;33.40;19.40;;;4.70;99.90;;;;;;5005019;28;20432;-68
2021/12/11 11:27:38;;;;;;;33.77;19.83;;;4.70;99.90;;;;;;5018292;28;20840;-67
2021/12/11 11:30:11;;;;;;;33.50;19.00;;;4.70;99.90;;;;;;4997839;28;20474;-67
2021/12/11 11:32:37;;;;;;;30.63;18.90;;;4.60;99.90;;;;;;4992524;28;20691;-67
2021/12/11 11:35:10;;;;;;;35.03;19.60;;;4.70;99.90;;;;;;4994435;28;20986;-67
2021/12/11 11:37:36;;;;;;;32.17;18.97;;;4.80;99.90;;;;;;5001722;28;20214;-67
2021/12/11 11:40:07;;;;;;;33.03;19.30;;;4.80;99.90;;;;;;5012987;28;20446;-67
2021/12/11 11:42:34;;;;;;;30.57;17.37;;;4.90;99.90;;;;;;5012135;28;20442;-67
2021/12/11 11:45:00;;;;;;;30.07;18.57;;;5.00;99.90;;;;;;5013895;28;20456;-67
2021/12/11 11:47:26;;;;;;;34.40;19.07;;;4.80;99.90;;;;;;5027440;28;20430;-67
2021/12/11 11:49:58;;;;;;;33.93;18.83;;;4.70;99.90;;;;;;5021455;28;20422;-67
2021/12/11 11:52:24;;;;;;;29.83;18.50;;;4.60;99.90;;;;;;5020351;28;20163;-67
2021/12/11 11:54:53;;;;;;;32.03;19.70;;;4.60;99.90;;;;;;5008165;28;20481;-70
2021/12/11 11:57:33;;;;;;;34.20;20.63;;;4.70;99.90;;;;;;5004094;28;20560;-68
2021/12/11 12:00:03;;;;;;;30.83;18.87;;;4.80;99.90;;;;;;5004926;28;20947;-68
2021/12/11 12:02:30;;;;;;;33.33;19.63;;;4.90;99.90;;;;;;4994290;28;20420;-66
2021/12/11 12:04:58;;;;;;;34.53;20.50;;;5.00;99.90;;;;;;4992105;28;20542;-67
2021/12/11 12:07:28;;;;;;;31.80;18.90;;;5.00;99.90;;;;;;4997317;28;20423;-66
2021/12/11 12:09:57;;;;;;;27.43;17.13;;;5.00;99.90;;;;;;5004212;28;20473;-66
2021/12/11 12:12:23;;;;;;;33.87;18.40;;;5.00;99.90;;;;;;4993487;28;20423;-69
2021/12/11 12:14:50;;;;;;;28.77;18.03;;;4.80;99.90;;;;;;4993899;28;20525;-67
2021/12/11 12:17:19;;;;;;;33.33;17.50;;;4.70;99.90;;;;;;4991637;28;20695;-67
2021/12/11 12:19:46;;;;;;;32.97;19.00;;;4.80;99.90;;;;;;4993806;28;20955;-67
2021/12/11 12:22:14;;;;;;;31.73;17.63;;;4.70;99.90;;;;;;4993966;28;20506;-67
2021/12/11 12:24:41;;;;;;;29.03;16.67;;;4.80;99.90;;;;;;4994050;28;20531;-67
2021/12/11 12:27:11;;;;;;;29.50;17.93;;;4.90;99.90;;;;;;4991666;28;20487;-67
2021/12/11 12:29:39;;;;;;;29.97;18.63;;;4.90;99.90;;;;;;4993059;28;20658;-67
2021/12/11 12:32:10;;;;;;;31.23;18.20;;;5.00;99.90;;;;;;4996032;28;20801;-67
2021/12/11 12:34:36;;;;;;;39.60;20.50;;;5.00;99.90;;;;;;4997661;28;20465;-68
2021/12/11 12:37:06;;;;;;;29.40;18.77;;;5.00;99.90;;;;;;4992719;28;20466;-69
2021/12/11 12:39:38;;;;;;;28.67;19.00;;;5.10;99.90;;;;;;4992626;28;20222;-69
2021/12/11 12:42:25;;;;;;;32.30;19.40;;;5.10;99.90;;;;;;4977247;28;20456;-68
2021/12/11 12:44:58;;;;;;;31.73;18.40;;;5.20;99.90;;;;;;4994448;28;20522;-67
2021/12/11 12:47:29;;;;;;;29.00;17.47;;;5.20;99.90;;;;;;4988288;28;20459;-66
2021/12/11 12:49:57;;;;;;;29.87;16.60;;;5.20;99.90;;;;;;5009379;28;20449;-66
2021/12/11 12:52:31;;;;;;;30.63;17.77;;;5.20;99.90;;;;;;4996372;28;20548;-67
2021/12/11 12:54:58;;;;;;;27.33;16.93;;;5.30;99.90;;;;;;5005309;28;20546;-67
2021/12/11 12:57:32;;;;;;;26.17;16.40;;;5.40;99.90;;;;;;5001997;28;20486;-67
2021/12/11 13:00:25;;;;;;;26.07;17.57;;;5.50;99.90;;;;;;4992792;28;20486;-67
2021/12/11 13:02:59;;;;;;;29.60;17.33;;;5.60;99.90;;;;;;4990627;28;20479;-67
2021/12/11 13:05:33;;;;;;;29.60;18.23;;;5.60;99.90;;;;;;4992060;28;20439;-67
2021/12/11 13:08:10;;;;;;;27.40;16.60;;;5.70;99.90;;;;;;4992414;28;20778;-67
2021/12/11 13:10:44;;;;;;;31.57;17.73;;;5.70;99.90;;;;;;4992390;28;20411;-67